Time;durP1;ratioP1;P1;durP2;ratioP2;P2;SDS_P1;SDS_P2;PMS_P1;PMS_P2;Temp;Humidity;BMP_temperature;BMP_pressure;BME280_temperature;BME280_humidity;BME280_pressure;Samples;Min_cycle;Max_cycle;Signal;HPM_P1;HPM_P2
2021/07/06 00:06:35;;;;;;;;;;;;;;;-148.22;100.00;58358.63;4956599;29;657;-83
2021/07/06 00:12:35;;;;;;;;;;;;;;;-148.22;100.00;58358.63;4956528;29;583;-83
2021/07/06 00:15:04;;;;;;;;;;;;;;;-148.22;100.00;58358.63;4959604;28;1191;-83
2021/07/06 00:17:30;;;;;;;;;;;;;;;-148.22;100.00;58358.63;4974933;28;1249;-81
2021/07/06 00:19:55;;;;;;;;;;;;;;;-148.22;100.00;58358.63;4976297;28;1395;-83
2021/07/06 00:22:20;;;;;;;;;;;;;;;-148.22;100.00;58358.63;4976210;28;1260;-82
2021/07/06 00:30:51;;;;;;;;;;;;;;;-148.22;100.00;58358.63;4977379;28;591;-82
2021/07/06 00:33:48;;;;;;;;;;;;;;;-148.22;100.00;58358.63;4977323;28;902;-83
2021/07/06 00:39:23;;;;;;;;;;;;;;;-148.22;100.00;58358.63;4977260;28;665;-82
2021/07/06 00:41:50;;;;;;;;;;;;;;;-148.22;100.00;58358.63;4975936;28;1140;-82
2021/07/06 00:47:29;;;;;;;;;;;;;;;-148.22;100.00;58358.63;4977787;28;1890;-82
2021/07/06 00:52:57;;;;;;;;;;;;;;;-148.22;100.00;58358.63;4996525;28;648;-82
2021/07/06 00:58:48;;;;;;;;;;;;;;;-148.22;100.00;58358.63;5014153;28;961;-83
2021/07/06 01:01:49;;;;;;;;;;;;;;;-148.22;100.00;58358.63;5012899;28;992;-82
2021/07/06 01:07:38;;;;;;;;;;;;;;;-148.22;100.00;58358.63;4994364;28;1903;-83
2021/07/06 01:13:06;;;;;;;;;;;;;;;-148.22;100.00;58358.63;4994414;28;607;-82
2021/07/06 01:15:57;;;;;;;;;;;;;;;-148.22;100.00;58358.63;4995864;28;1311;-83
2021/07/06 01:18:22;;;;;;;;;;;;;;;-148.22;100.00;58358.63;4998084;28;1158;-82
2021/07/06 01:23:50;;;;;;;;;;;;;;;-148.22;100.00;58358.63;4998278;28;605;-83
2021/07/06 01:32:47;;;;;;;;;;;;;;;-148.22;100.00;58358.63;4998053;28;918;-84
2021/07/06 01:35:52;;;;;;;;;;;;;;;-148.22;100.00;58358.63;5006936;28;1252;-84
2021/07/06 01:38:50;;;;;;;;;;;;;;;-148.22;100.00;58358.63;5015094;28;1388;-83
2021/07/06 01:41:16;;;;;;;;;;;;;;;-148.22;100.00;58358.63;4978286;28;1351;-83
2021/07/06 01:46:44;;;;;;;;;;;;;;;-148.22;100.00;58358.63;4978518;28;659;-83
2021/07/06 01:49:29;;;;;;;;;;;;;;;-148.22;100.00;58358.63;4978309;28;1887;-82
2021/07/06 01:52:24;;;;;;;;;;;;;;;-148.22;100.00;58358.63;4978156;28;1252;-82
2021/07/06 01:57:53;;;;;;;;;;;;;;;-148.22;100.00;58358.63;4939668;29;1151;-82
2021/07/06 02:00:44;;;;;;;;;;;;;;;-148.22;100.00;58358.63;4939415;29;1282;-82
2021/07/06 02:06:21;;;;;;;;;;;;;;;-148.22;100.00;58358.63;4939883;29;924;-83
2021/07/06 02:09:19;;;;;;;;;;;;;;;-148.22;100.00;58358.63;4923555;29;1902;-82
2021/07/06 02:11:54;;;;;;;;;;;;;;;-148.22;100.00;58358.63;4920350;29;1212;-83
2021/07/06 02:14:45;;;;;;;;;;;;;;;-148.22;100.00;58358.63;4904514;29;1213;-82
2021/07/06 02:20:15;;;;;;;;;;;;;;;-148.22;100.00;58358.63;4916200;29;1108;-82
2021/07/06 02:22:41;;;;;;;;;;;;;;;-148.22;100.00;58358.63;4920185;29;1297;-81
2021/07/06 02:25:07;;;;;;;;;;;;;;;-148.22;100.00;58358.63;4920172;29;1348;-83
2021/07/06 02:30:35;;;;;;;;;;;;;;;-148.22;100.00;58358.63;4928712;29;1032;-83
2021/07/06 02:36:04;;;;;;;;;;;;;;;-148.22;100.00;58358.63;4939111;29;613;-83
2021/07/06 02:38:44;;;;;;;;;;;;;;;-148.22;100.00;58358.63;4938908;29;1350;-83
2021/07/06 02:44:12;;;;;;;;;;;;;;;-148.22;100.00;58358.63;4938888;29;670;-82
2021/07/06 02:46:44;;;;;;;;;;;;;;;-148.22;100.00;58358.63;4947671;28;1158;-82
2021/07/06 02:52:13;;;;;;;;;;;;;;;-148.22;100.00;58358.63;4979159;28;638;-82
2021/07/06 02:54:58;;;;;;;;;;;;;;;-148.22;100.00;58358.63;4977864;28;1317;-82
2021/07/06 03:00:27;;;;;;;;;;;;;;;-148.22;100.00;58358.63;4978999;28;610;-83
2021/07/06 03:06:04;;;;;;;;;;;;;;;-148.22;100.00;58358.63;4987737;28;1186;-83
2021/07/06 03:11:53;;;;;;;;;;;;;;;-148.22;100.00;58358.63;4978715;28;672;-82
2021/07/06 03:14:29;;;;;;;;;;;;;;;-148.22;100.00;58358.63;4979060;28;971;-83
2021/07/06 03:19:57;;;;;;;;;;;;;;;-148.22;100.00;58358.63;4972955;28;1107;-83
2021/07/06 03:22:22;;;;;;;;;;;;;;;-148.22;100.00;58358.63;4993704;28;1212;-83
2021/07/06 03:25:08;;;;;;;;;;;;;;;-148.22;100.00;58358.63;4977345;28;1239;-83
2021/07/06 03:27:40;;;;;;;;;;;;;;;-148.22;100.00;58358.63;4977529;28;1910;-83
2021/07/06 03:33:33;;;;;;;;;;;;;;;-148.22;100.00;58358.63;4979219;28;1098;-83
2021/07/06 03:39:01;;;;;;;;;;;;;;;-148.22;100.00;58358.63;4977468;28;574;-83
2021/07/06 03:44:29;;;;;;;;;;;;;;;-148.22;100.00;58358.63;4978236;28;595;-82
2021/07/06 03:50:07;;;;;;;;;;;;;;;-148.22;100.00;58358.63;4978094;28;583;-81
2021/07/06 03:52:49;;;;;;;;;;;;;;;-148.22;100.00;58358.63;4976683;28;1280;-83
2021/07/06 03:58:16;;;;;;;;;;;;;;;-148.22;100.00;58358.63;4977896;28;607;-82
2021/07/06 04:04:09;;;;;;;;;;;;;;;-148.22;100.00;58358.63;4977873;28;621;-83
2021/07/06 04:09:38;;;;;;;;;;;;;;;-148.22;100.00;58358.63;4977784;28;626;-82
2021/07/06 04:15:25;;;;;;;;;;;;;;;-148.22;100.00;58358.63;4997098;28;578;-82
2021/07/06 04:20:53;;;;;;;;;;;;;;;-148.22;100.00;58358.63;4994067;28;1011;-82
2021/07/06 04:23:18;;;;;;;;;;;;;;;-148.22;100.00;58358.63;4995711;28;1204;-83
2021/07/06 04:26:12;;;;;;;;;;;;;;;-148.22;100.00;58358.63;4995692;28;1072;-83
2021/07/06 04:31:40;;;;;;;;;;;;;;;-148.22;100.00;58358.63;4996702;28;686;-83
2021/07/06 04:37:45;;;;;;;;;;;;;;;-148.22;100.00;58358.63;4996825;28;654;-83
2021/07/06 04:40:47;;;;;;;;;;;;;;;-148.22;100.00;58358.63;4996820;28;921;-83
2021/07/06 04:43:31;;;;;;;;;;;;;;;-148.22;100.00;58358.63;5007367;28;1129;-83
2021/07/06 04:46:12;;;;;;;;;;;;;;;-148.22;100.00;58358.63;4995009;28;1306;-83
2021/07/06 04:52:15;;;;;;;;;;;;;;;-148.22;100.00;58358.63;4996692;28;590;-83
2021/07/06 05:00:46;;;;;;;;;;;;;;;-148.22;100.00;58358.63;4975112;28;614;-83
2021/07/06 05:06:15;;;;;;;;;;;;;;;-148.22;100.00;58358.63;4975109;28;596;-84
2021/07/06 05:11:43;;;;;;;;;;;;;;;-148.22;100.00;58358.63;4975006;28;913;-83
2021/07/06 05:14:24;;;;;;;;;;;;;;;-148.22;100.00;58358.63;4974637;28;1272;-82
2021/07/06 05:20:03;;;;;;;;;;;;;;;-148.22;100.00;58358.63;4951426;29;1202;-82
2021/07/06 05:22:28;;;;;;;;;;;;;;;-148.22;100.00;58358.63;4955413;29;953;-84
2021/07/06 05:27:56;;;;;;;;;;;;;;;-148.22;100.00;58358.63;4955414;29;1990;-83
2021/07/06 05:33:24;;;;;;;;;;;;;;;-148.22;100.00;58358.63;4955645;29;689;-82
2021/07/06 05:38:53;;;;;;;;;;;;;;;-148.22;100.00;58358.63;4955599;29;610;-82
2021/07/06 05:44:21;;;;;;;;;;;;;;;-148.22;100.00;58358.63;4955525;29;914;-83
2021/07/06 05:46:54;;;;;;;;;;;;;;;-148.22;100.00;58358.63;4955261;29;880;-82
2021/07/06 05:49:48;;;;;;;;;;;;;;;-148.22;100.00;58358.63;4955188;28;1965;-82
2021/07/06 05:55:16;;;;;;;;;;;;;;;-148.22;100.00;58358.63;4955436;28;1181;-82
2021/07/06 06:00:51;;;;;;;;;;;;;;;-148.22;100.00;58358.63;4995943;28;1354;-78
2021/07/06 06:03:20;;;;;;;;;;;;;;;-148.22;100.00;58358.63;4998176;28;1215;-79
2021/07/06 06:05:46;;;;;;;;;;;;;;;-148.22;100.00;58358.63;5014432;28;1277;-80
2021/07/06 06:08:13;;;;;;;;;;;;;;;-148.22;100.00;58358.63;4998062;28;1951;-79
2021/07/06 06:10:39;;;;;;;;;;;;;;;-148.22;100.00;58358.63;4998085;28;1240;-80
2021/07/06 06:13:04;;;;;;;;;;;;;;;-148.22;100.00;58358.63;4997936;28;1160;-79
2021/07/06 06:15:29;;;;;;;;;;;;;;;-148.22;100.00;58358.63;4999118;28;866;-79
2021/07/06 06:18:01;;;;;;;;;;;;;;;-148.22;100.00;58358.63;4996445;28;1299;-79
2021/07/06 06:20:26;;;;;;;;;;;;;;;-148.22;100.00;58358.63;4986657;28;1295;-79
2021/07/06 06:22:52;;;;;;;;;;;;;;;-148.22;100.00;58358.63;4979577;28;857;-79
2021/07/06 06:25:19;;;;;;;;;;;;;;;-148.22;100.00;58358.63;4978210;28;1153;-79
2021/07/06 06:27:47;;;;;;;;;;;;;;;-148.22;100.00;58358.63;4979479;28;1978;-81
2021/07/06 06:30:13;;;;;;;;;;;;;;;-148.22;100.00;58358.63;4978263;28;1193;-80
2021/07/06 06:32:41;;;;;;;;;;;;;;;-148.22;100.00;58358.63;4978078;28;1181;-81
2021/07/06 06:35:06;;;;;;;;;;;;;;;-148.22;100.00;58358.63;4978164;28;1169;-80
2021/07/06 06:37:32;;;;;;;;;;;;;;;-148.22;100.00;58358.63;4978049;28;1294;-81
2021/07/06 06:40:05;;;;;;;;;;;;;;;-148.22;100.00;58358.63;4977921;28;1170;-81
2021/07/06 06:42:41;;;;;;;;;;;;;;;-148.22;100.00;58358.63;4995559;28;1189;-81
2021/07/06 06:45:13;;;;;;;;;;;;;;;-148.22;100.00;58358.63;4997297;28;1287;-80
2021/07/06 06:47:47;;;;;;;;;;;;;;;-148.22;100.00;58358.63;4997171;28;1962;-81
2021/07/06 06:50:23;;;;;;;;;;;;;;;-148.22;100.00;58358.63;4997207;28;1189;-81
2021/07/06 06:52:50;;;;;;;;;;;;;;;-148.22;100.00;58358.63;4997197;28;1283;-80
2021/07/06 06:55:17;;;;;;;;;;;;;;;-148.22;100.00;58358.63;4991138;28;10273;-81
2021/07/06 06:57:44;;;;;;;;;;;;;;;-148.22;100.00;58358.63;4992726;28;5782;-82
2021/07/06 07:00:10;;;;;;;;;;;;;;;-148.22;100.00;58358.63;4995548;28;1260;-82
2021/07/06 07:02:38;;;;;;;;;;;;;;;-148.22;100.00;58358.63;4997992;28;1590;-80
2021/07/06 07:05:04;;;;;;;;;;;;;;;-148.22;100.00;58358.63;4990363;28;1173;-82
2021/07/06 07:07:32;;;;;;;;;;;;;;;-148.22;100.00;58358.63;4977451;28;1966;-81
2021/07/06 07:10:03;;;;;;;;;;;;;;;-148.22;100.00;58358.63;5001594;28;1619;-81
2021/07/06 07:12:29;;;;;;;;;;;;;;;-148.22;100.00;58358.63;4996716;28;1280;-80
2021/07/06 07:14:56;;;;;;;;;;;;;;;-148.22;100.00;58358.63;4981246;28;1265;-81
2021/07/06 07:17:22;;;;;;;;;;;;;;;-148.22;100.00;58358.63;4990060;28;1329;-80
2021/07/06 07:19:48;;;;;;;;;;;;;;;-148.22;100.00;58358.63;4997072;28;1267;-79
2021/07/06 07:22:14;;;;;;;;;;;;;;;-148.22;100.00;58358.63;4997728;28;1237;-79
2021/07/06 07:24:41;;;;;;;;;;;;;;;-148.22;100.00;58358.63;5008648;28;1396;-79
2021/07/06 07:27:08;;;;;;;;;;;;;;;-148.22;100.00;58358.63;5017199;28;771;-79
2021/07/06 07:29:48;;;;;;;;;;;;;;;-148.22;100.00;58358.63;5017143;28;1911;-79
2021/07/06 07:32:24;;;;;;;;;;;;;;;-148.22;100.00;58358.63;5015998;28;1218;-79
2021/07/06 07:34:49;;;;;;;;;;;;;;;-148.22;100.00;58358.63;5015963;28;1271;-79
2021/07/06 07:37:22;;;;;;;;;;;;;;;-148.22;100.00;58358.63;5015882;28;1188;-79
2021/07/06 07:40:12;;;;;;;;;;;;;;;-148.22;100.00;58358.63;5011617;28;1230;-80
2021/07/06 07:42:39;;;;;;;;;;;;;;;-148.22;100.00;58358.63;5020695;28;1299;-79
2021/07/06 07:45:05;;;;;;;;;;;;;;;-148.22;100.00;58358.63;4996206;28;1355;-79
2021/07/06 07:47:30;;;;;;;;;;;;;;;-148.22;100.00;58358.63;5012815;28;1886;-80
2021/07/06 07:50:08;;;;;;;;;;;;;;;-148.22;100.00;58358.63;4998089;28;1295;-80
2021/07/06 07:52:47;;;;;;;;;;;;;;;-148.22;100.00;58358.63;4996074;28;1321;-80
2021/07/06 07:55:13;;;;;;;;;;;;;;;-148.22;100.00;58358.63;5009641;28;962;-79
2021/07/06 07:57:45;;;;;;;;;;;;;;;-148.22;100.00;58358.63;4998986;28;1183;-80
2021/07/06 08:00:12;;;;;;;;;;;;;;;-148.22;100.00;58358.63;5004153;28;1333;-80
2021/07/06 08:02:37;;;;;;;;;;;;;;;-148.22;100.00;58358.63;5018757;23;1523;-80
2021/07/06 08:05:02;;;;;;;;;;;;;;;-148.22;100.00;58358.63;4996892;28;1382;-80
2021/07/06 08:07:28;;;;;;;;;;;;;;;-148.22;100.00;58358.63;4996843;28;1987;-81
2021/07/06 08:09:54;;;;;;;;;;;;;;;-148.22;100.00;58358.63;4997320;28;1042;-82
2021/07/06 08:12:19;;;;;;;;;;;;;;;-148.22;100.00;58358.63;4979029;28;1572;-82
2021/07/06 08:14:51;;;;;;;;;;;;;;;-148.22;100.00;58358.63;4979471;28;1328;-82
2021/07/06 08:17:21;;;;;;;;;;;;;;;-148.22;100.00;58358.63;4979631;28;1451;-82
2021/07/06 08:20:18;;;;;;;;;;;;;;;-148.22;100.00;58358.63;4996803;28;823;-82
2021/07/06 08:22:47;;;;;;;;;;;;;;;-148.22;100.00;58358.63;4936840;29;1190;-81
2021/07/06 08:25:23;;;;;;;;;;;;;;;-148.22;100.00;58358.63;4920598;29;1227;-81
2021/07/06 08:27:49;;;;;;;;;;;;;;;-148.22;100.00;58358.63;4918019;29;1911;-81
2021/07/06 08:30:16;;;;;;;;;;;;;;;-148.22;100.00;58358.63;4917667;29;1198;-81
2021/07/06 08:32:41;;;;;;;;;;;;;;;-148.22;100.00;58358.63;4932021;29;1402;-82
2021/07/06 08:35:09;;;;;;;;;;;;;;;-148.22;100.00;58358.63;4920033;29;1553;-82
2021/07/06 08:37:54;;;;;;;;;;;;;;;-148.22;100.00;58358.63;4936166;29;1266;-81
2021/07/06 08:40:21;;;;;;;;;;;;;;;-148.22;100.00;58358.63;4920278;29;1274;-81
2021/07/06 08:42:48;;;;;;;;;;;;;;;-148.22;100.00;58358.63;4920580;29;1503;-81
2021/07/06 08:45:15;;;;;;;;;;;;;;;-148.22;100.00;58358.63;4920537;29;1517;-82
2021/07/06 08:47:47;;;;;;;;;;;;;;;-148.22;100.00;58358.63;4920450;29;1891;-82
2021/07/06 08:50:13;;;;;;;;;;;;;;;-148.22;100.00;58358.63;4920862;29;1242;-82
2021/07/06 08:52:48;;;;;;;;;;;;;;;-148.22;100.00;58358.63;4920382;29;1615;-82
2021/07/06 08:55:15;;;;;;;;;;;;;;;-148.22;100.00;58358.63;4918141;29;1583;-82
2021/07/06 08:57:42;;;;;;;;;;;;;;;-148.22;100.00;58358.63;4917006;29;1535;-82
2021/07/06 09:00:11;;;;;;;;;;;;;;;-148.22;100.00;58358.63;4964132;28;1325;-81
2021/07/06 09:02:59;;;;;;;;;;;;;;;-148.22;100.00;58358.63;4992911;28;1090;-81
2021/07/06 09:05:25;;;;;;;;;;;;;;;-148.22;100.00;58358.63;4958479;28;1296;-81
2021/07/06 09:07:57;;;;;;;;;;;;;;;-148.22;100.00;58358.63;4975423;28;1960;-82
2021/07/06 09:10:25;;;;;;;;;;;;;;;-148.22;100.00;58358.63;4975557;28;1319;-81
2021/07/06 09:12:51;;;;;;;;;;;;;;;-148.22;100.00;58358.63;4974409;28;1432;-83
2021/07/06 09:15:18;;;;;;;;;;;;;;;-148.22;100.00;58358.63;4975552;28;1113;-80
2021/07/06 09:17:45;;;;;;;;;;;;;;;-148.22;100.00;58358.63;4975078;28;1352;-79
2021/07/06 09:20:13;;;;;;;;;;;;;;;-148.22;100.00;58358.63;4974726;28;1148;-80
2021/07/06 09:22:44;;;;;;;;;;;;;;;-148.22;100.00;58358.63;4968827;28;1622;-80
2021/07/06 09:25:09;;;;;;;;;;;;;;;-148.22;100.00;58358.63;4975048;28;1676;-80
2021/07/06 09:27:35;;;;;;;;;;;;;;;-148.22;100.00;58358.63;4974336;28;1939;-79
2021/07/06 09:30:03;;;;;;;;;;;;;;;-148.22;100.00;58358.63;4976310;28;1216;-81
2021/07/06 09:32:30;;;;;;;;;;;;;;;-148.22;100.00;58358.63;4975721;28;1364;-80
2021/07/06 09:35:04;;;;;;;;;;;;;;;-148.22;100.00;58358.63;4975344;28;1233;-80
2021/07/06 09:37:50;;;;;;;;;;;;;;;-148.22;100.00;58358.63;4978125;28;1319;-80
2021/07/06 09:40:49;;;;;;;;;;;;;;;-148.22;100.00;58358.63;4979288;28;1255;-82
2021/07/06 09:43:23;;;;;;;;;;;;;;;-148.22;100.00;58358.63;4904745;29;1559;-83
2021/07/06 09:46:13;;;;;;;;;;;;;;;-148.22;100.00;58358.63;4905334;29;1215;-89
2021/07/06 09:48:43;;;;;;;;;;;;;;;-148.22;100.00;58358.63;4911494;29;1887;-89
2021/07/06 09:51:16;;;;;;;;;;;;;;;-148.22;100.00;58358.63;4896555;29;1584;-88
2021/07/06 09:54:08;;;;;;;;;;;;;;;-148.22;100.00;58358.63;4923870;29;1191;-90
2021/07/06 09:56:42;;;;;;;;;;;;;;;-148.22;100.00;58358.63;4891303;29;1367;-96
2021/07/06 10:02:18;;;;;;;;;;;;;;;-148.22;100.00;58358.63;4906345;29;1288;-92
2021/07/06 10:04:43;;;;;;;;;;;;;;;-148.22;100.00;58358.63;4887626;29;1232;-93
2021/07/06 10:10:13;;;;;;;;;;;;;;;-148.22;100.00;58358.63;4902106;29;930;-94
2021/07/06 10:15:41;;;;;;;;;;;;;;;-148.22;100.00;58358.63;4903425;29;571;-95
2021/07/06 10:21:08;;;;;;;;;;;;;;;-148.22;100.00;58358.63;4960611;29;587;-94
2021/07/06 10:26:38;;;;;;;;;;;;;;;-148.22;100.00;58358.63;4960424;29;661;-93
2021/07/06 10:32:07;;;;;;;;;;;;;;;-148.22;100.00;58358.63;4960561;29;642;-93
2021/07/06 10:34:41;;;;;;;;;;;;;;;-148.22;100.00;58358.63;4959240;29;1333;-91
2021/07/06 10:40:12;;;;;;;;;;;;;;;-148.22;100.00;58358.63;4960283;29;654;-92
2021/07/06 10:45:54;;;;;;;;;;;;;;;-148.22;100.00;58358.63;4960125;29;591;-91
2021/07/06 10:51:34;;;;;;;;;;;;;;;-148.22;100.00;58358.63;4959885;29;653;-91
2021/07/06 10:57:06;;;;;;;;;;;;;;;-148.22;100.00;58358.63;4959844;29;575;-90
2021/07/06 11:02:36;;;;;;;;;;;;;;;-148.22;100.00;58358.63;4959824;29;658;-90
2021/07/06 11:05:02;;;;;;;;;;;;;;;-148.22;100.00;58358.63;4979568;28;1427;-89
2021/07/06 11:07:49;;;;;;;;;;;;;;;-148.22;100.00;58358.63;4997248;28;1922;-90
2021/07/06 11:10:16;;;;;;;;;;;;;;;-148.22;100.00;58358.63;4997115;28;1318;-90
2021/07/06 11:15:44;;;;;;;;;;;;;;;-148.22;100.00;58358.63;4998343;28;641;-91
2021/07/06 11:24:16;;;;;;;;;;;;;;;-148.22;100.00;58358.63;4998018;28;583;-90
2021/07/06 11:27:00;;;;;;;;;;;;;;;-148.22;100.00;58358.63;4996915;28;1201;-92
2021/07/06 11:30:00;;;;;;;;;;;;;;;-148.22;100.00;58358.63;4961290;28;1894;-92
2021/07/06 11:35:29;;;;;;;;;;;;;;;-148.22;100.00;58358.63;4938316;29;931;-92
2021/07/06 11:38:34;;;;;;;;;;;;;;;-148.22;100.00;58358.63;4937653;29;1222;-92
2021/07/06 11:41:01;;;;;;;;;;;;;;;-148.22;100.00;58358.63;4938381;29;1570;-84
2021/07/06 11:43:36;;;;;;;;;;;;;;;-148.22;100.00;58358.63;4920937;29;1555;-88
2021/07/06 11:46:22;;;;;;;;;;;;;;;-148.22;100.00;58358.63;4918227;29;1412;-88
2021/07/06 11:49:24;;;;;;;;;;;;;;;-148.22;100.00;58358.63;4914584;29;1950;-86
2021/07/06 11:52:07;;;;;;;;;;;;;;;-148.22;100.00;58358.63;4937508;29;1570;-84
2021/07/06 11:54:34;;;;;;;;;;;;;;;-148.22;100.00;58358.63;4921232;29;1591;-81
2021/07/06 11:57:08;;;;;;;;;;;;;;;-148.22;100.00;58358.63;4921518;29;1364;-82
2021/07/06 11:59:35;;;;;;;;;;;;;;;-148.22;100.00;58358.63;4920630;29;1372;-88
2021/07/06 12:02:12;;;;;;;;;;;;;;;-148.22;100.00;58358.63;4914850;29;1607;-84
2021/07/06 12:04:37;;;;;;;;;;;;;;;-148.22;100.00;58358.63;4937135;29;1413;-87
2021/07/06 12:07:16;;;;;;;;;;;;;;;-148.22;100.00;58358.63;4937609;29;1582;-85
2021/07/06 12:09:43;;;;;;;;;;;;;;;-148.22;100.00;58358.63;4955854;29;1903;-89
2021/07/06 12:12:10;;;;;;;;;;;;;;;-148.22;100.00;58358.63;4942316;29;1391;-88
2021/07/06 12:14:55;;;;;;;;;;;;;;;-148.22;100.00;58358.63;4941574;29;1271;-92
2021/07/06 12:17:37;;;;;;;;;;;;;;;-148.22;100.00;58358.63;4948422;28;1294;-90
2021/07/06 12:20:39;;;;;;;;;;;;;;;-148.22;100.00;58358.63;4949496;29;1411;-89
2021/07/06 12:26:07;;;;;;;;;;;;;;;-148.22;100.00;58358.63;4977068;28;1534;-89
2021/07/06 12:31:36;;;;;;;;;;;;;;;-148.22;100.00;58358.63;4958214;29;630;-89
2021/07/06 12:34:25;;;;;;;;;;;;;;;-148.22;100.00;58358.63;4945565;28;1599;-94
2021/07/06 12:36:56;;;;;;;;;;;;;;;-148.22;100.00;58358.63;4917781;29;1167;-88
2021/07/06 12:43:13;;;;;;;;;;;;;;;-148.22;100.00;58358.63;4899605;29;982;-88
2021/07/06 12:45:47;;;;;;;;;;;;;;;-148.22;100.00;58358.63;4883547;29;1335;-89
2021/07/06 12:48:23;;;;;;;;;;;;;;;-148.22;100.00;58358.63;4898649;29;1972;-91
2021/07/06 12:53:59;;;;;;;;;;;;;;;-148.22;100.00;58358.63;4898596;29;1648;-87
2021/07/06 12:56:32;;;;;;;;;;;;;;;-148.22;100.00;58358.63;4890135;29;1528;-87
2021/07/06 12:59:23;;;;;;;;;;;;;;;-148.22;100.00;58358.63;4917809;29;918;-87
2021/07/06 13:01:50;;;;;;;;;;;;;;;-148.22;100.00;58358.63;4901554;29;1776;-86
2021/07/06 13:04:15;;;;;;;;;;;;;;;-148.22;100.00;58358.63;4882461;29;1754;-85
2021/07/06 13:06:42;;;;;;;;;;;;;;;-148.22;100.00;58358.63;4898534;29;961;-84
2021/07/06 13:09:09;;;;;;;;;;;;;;;-148.22;100.00;58358.63;4882939;29;1919;-84
2021/07/06 13:11:44;;;;;;;;;;;;;;;-148.22;100.00;58358.63;4903663;29;1698;-89
2021/07/06 13:14:46;;;;;;;;;;;;;;;-148.22;100.00;58358.63;4913399;29;1333;-88
2021/07/06 13:17:28;;;;;;;;;;;;;;;-148.22;100.00;58358.63;4952169;28;1450;-80
2021/07/06 13:20:25;;;;;;;;;;;;;;;-148.22;100.00;58358.63;4972687;28;1170;-80
2021/07/06 13:23:00;;;;;;;;;;;;;;;-148.22;100.00;58358.63;4926527;29;1240;-81
2021/07/06 13:25:26;;;;;;;;;;;;;;;-148.22;100.00;58358.63;4923781;29;1479;-83
2021/07/06 13:27:58;;;;;;;;;;;;;;;-148.22;100.00;58358.63;4921677;29;1953;-82
2021/07/06 13:30:54;;;;;;;;;;;;;;;-148.22;100.00;58358.63;4926668;29;1309;-83
2021/07/06 13:33:20;;;;;;;;;;;;;;;-148.22;100.00;58358.63;4926718;29;1202;-82
2021/07/06 13:35:48;;;;;;;;;;;;;;;-148.22;100.00;58358.63;4942792;29;978;-82
2021/07/06 13:38:16;;;;;;;;;;;;;;;-148.22;100.00;58358.63;4926728;29;1206;-82
2021/07/06 13:40:43;;;;;;;;;;;;;;;-148.22;100.00;58358.63;4926673;29;1308;-84
2021/07/06 13:43:09;;;;;;;;;;;;;;;-148.22;100.00;58358.63;4926561;29;1470;-82
2021/07/06 13:45:48;;;;;;;;;;;;;;;-148.22;100.00;58358.63;4926330;29;1270;-82
2021/07/06 13:48:15;;;;;;;;;;;;;;;-148.22;100.00;58358.63;4926461;29;1891;-82
2021/07/06 13:50:49;;;;;;;;;;;;;;;-148.22;100.00;58358.63;4926566;29;1287;-82
2021/07/06 13:53:17;;;;;;;;;;;;;;;-148.22;100.00;58358.63;4926596;29;1138;-83
2021/07/06 13:55:43;;;;;;;;;;;;;;;-148.22;100.00;58358.63;4926586;29;1177;-82
2021/07/06 13:58:38;;;;;;;;;;;;;;;-148.22;100.00;58358.63;4944955;28;1087;-83
2021/07/06 14:01:08;;;;;;;;;;;;;;;-148.22;100.00;58358.63;4942380;29;1418;-83
2021/07/06 14:03:33;;;;;;;;;;;;;;;-148.22;100.00;58358.63;4911663;29;1348;-83
2021/07/06 14:05:59;;;;;;;;;;;;;;;-148.22;100.00;58358.63;4923269;29;1478;-82
2021/07/06 14:08:25;;;;;;;;;;;;;;;-148.22;100.00;58358.63;4922789;29;1915;-81
2021/07/06 14:10:52;;;;;;;;;;;;;;;-148.22;100.00;58358.63;4894244;29;1417;-82
2021/07/06 14:13:19;;;;;;;;;;;;;;;-148.22;100.00;58358.63;4888789;29;1428;-82
2021/07/06 14:15:45;;;;;;;;;;;;;;;-148.22;100.00;58358.63;4895590;29;1403;-82
2021/07/06 14:18:11;;;;;;;;;;;;;;;-148.22;100.00;58358.63;4922772;29;1573;-82
2021/07/06 14:20:37;;;;;;;;;;;;;;;-148.22;100.00;58358.63;4907177;29;1674;-83
2021/07/06 14:23:19;;;;;;;;;;;;;;;-148.22;100.00;58358.63;4920156;29;839;-82
2021/07/06 14:26:14;;;;;;;;;;;;;;;-148.22;100.00;58358.63;4904220;29;1632;-80
2021/07/06 14:28:44;;;;;;;;;;;;;;;-148.22;100.00;58358.63;4882023;29;1954;-81
2021/07/06 14:31:10;;;;;;;;;;;;;;;-148.22;100.00;58358.63;4866814;29;1357;-81
2021/07/06 14:33:36;;;;;;;;;;;;;;;-148.22;100.00;58358.63;4866902;29;1211;-81
2021/07/06 14:36:10;;;;;;;;;;;;;;;-148.22;100.00;58358.63;4882502;29;820;-81
2021/07/06 14:38:36;;;;;;;;;;;;;;;-148.22;100.00;58358.63;4885355;29;1345;-81
2021/07/06 14:41:29;;;;;;;;;;;;;;;-148.22;100.00;58358.63;4885261;29;1315;-80
2021/07/06 14:43:56;;;;;;;;;;;;;;;-148.22;100.00;58358.63;4901044;29;839;-81
2021/07/06 14:46:21;;;;;;;;;;;;;;;-148.22;100.00;58358.63;4885263;29;1252;-82
2021/07/06 14:48:47;;;;;;;;;;;;;;;-148.22;100.00;58358.63;4885105;29;1887;-82
2021/07/06 14:51:25;;;;;;;;;;;;;;;-148.22;100.00;58358.63;4900740;29;955;-81
2021/07/06 14:53:53;;;;;;;;;;;;;;;-148.22;100.00;58358.63;4885349;29;1261;-80
2021/07/06 14:56:27;;;;;;;;;;;;;;;-148.22;100.00;58358.63;4900748;29;1322;-81
2021/07/06 14:58:53;;;;;;;;;;;;;;;-148.22;100.00;58358.63;4884988;29;1406;-81
2021/07/06 15:01:19;;;;;;;;;;;;;;;-148.22;100.00;58358.63;4900492;29;1167;-80
2021/07/06 15:03:51;;;;;;;;;;;;;;;-148.22;100.00;58358.63;4883662;29;1423;-81
2021/07/06 15:06:17;;;;;;;;;;;;;;;-148.22;100.00;58358.63;4978842;28;1131;-81
2021/07/06 15:08:42;;;;;;;;;;;;;;;-148.22;100.00;58358.63;4977438;28;1958;-81
2021/07/06 15:11:16;;;;;;;;;;;;;;;-148.22;100.00;58358.63;4977556;28;1341;-81
2021/07/06 15:14:00;;;;;;;;;;;;;;;-148.22;100.00;58358.63;4977550;28;1220;-81
2021/07/06 15:16:39;;;;;;;;;;;;;;;-148.22;100.00;58358.63;4978695;28;1031;-81
2021/07/06 15:19:12;;;;;;;;;;;;;;;-148.22;100.00;58358.63;4977459;28;1283;-81
2021/07/06 15:21:54;;;;;;;;;;;;;;;-148.22;100.00;58358.63;4978633;28;842;-81
2021/07/06 15:24:48;;;;;;;;;;;;;;;-148.22;100.00;58358.63;4978510;28;1358;-80
2021/07/06 15:27:29;;;;;;;;;;;;;;;-148.22;100.00;58358.63;4916759;29;1335;-80
2021/07/06 15:30:07;;;;;;;;;;;;;;;-148.22;100.00;58358.63;4884323;29;1936;-81
2021/07/06 15:32:33;;;;;;;;;;;;;;;-148.22;100.00;58358.63;4884497;29;1262;-81
2021/07/06 15:34:59;;;;;;;;;;;;;;;-148.22;100.00;58358.63;4898937;29;887;-81
2021/07/06 15:37:27;;;;;;;;;;;;;;;-148.22;100.00;58358.63;4884281;29;1351;-80
2021/07/06 15:39:54;;;;;;;;;;;;;;;-148.22;100.00;58358.63;4908883;29;923;-80
2021/07/06 15:42:20;;;;;;;;;;;;;;;-148.22;100.00;58358.63;4911655;29;1282;-81
2021/07/06 15:45:24;;;;;;;;;;;;;;;-148.22;100.00;58358.63;4899744;29;1014;-80
2021/07/06 15:47:52;;;;;;;;;;;;;;;-148.22;100.00;58358.63;4862538;29;1898;-81
2021/07/06 15:50:31;;;;;;;;;;;;;;;-148.22;100.00;58358.63;4862503;29;936;-81
2021/07/06 15:52:58;;;;;;;;;;;;;;;-148.22;100.00;58358.63;4847005;29;1334;-80
2021/07/06 15:55:24;;;;;;;;;;;;;;;-148.22;100.00;58358.63;4846904;29;1260;-81
2021/07/06 15:57:51;;;;;;;;;;;;;;;-148.22;100.00;58358.63;4846923;29;1334;-80
2021/07/06 16:00:19;;;;;;;;;;;;;;;-148.22;100.00;58358.63;4862239;29;1219;-81
2021/07/06 16:03:01;;;;;;;;;;;;;;;-148.22;100.00;58358.63;4872793;29;1284;-81
2021/07/06 16:05:26;;;;;;;;;;;;;;;-148.22;100.00;58358.63;4936177;29;1204;-81
2021/07/06 16:07:51;;;;;;;;;;;;;;;-148.22;100.00;58358.63;4921308;29;1915;-81
2021/07/06 16:10:27;;;;;;;;;;;;;;;-148.22;100.00;58358.63;4921287;29;1336;-81
2021/07/06 16:12:52;;;;;;;;;;;;;;;-148.22;100.00;58358.63;4937295;29;1069;-81
2021/07/06 16:15:21;;;;;;;;;;;;;;;-148.22;100.00;58358.63;4937323;29;823;-81
2021/07/06 16:18:16;;;;;;;;;;;;;;;-148.22;100.00;58358.63;4940800;29;979;-81
2021/07/06 16:20:50;;;;;;;;;;;;;;;-148.22;100.00;58358.63;4918142;29;998;-81
2021/07/06 16:23:16;;;;;;;;;;;;;;;-148.22;100.00;58358.63;4902016;29;1158;-80
2021/07/06 16:25:50;;;;;;;;;;;;;;;-148.22;100.00;58358.63;4900402;29;1171;-81